Weather reports worldwide

Advertisment
Great Dun Fell, United Kingdom (3227): temperature & dewpoint: 18.06.2018 14:00:00 - 24.06.2018 14:00:00 (BST)Great Dun Fell, United Kingdom (3227): wind speed & gusts: 18.06.2018 14:00:00 - 24.06.2018 14:00:00 (BST)Great Dun Fell, United Kingdom (3227): wind direction: 18.06.2018 14:00:00 - 24.06.2018 14:00:00 (BST)
Date & Time tt [°C] td [°C] ff [km/h] ff [kn] fx [km/h] fx [kn] dd
24.06.2018 14:00:00 13,0 4,5 24 13 - - W
24.06.2018 13:00:00 12,5 4,1 22 12 - - W
24.06.2018 12:00:00 11,1 1,8 16 9 - - W
24.06.2018 11:00:00 10,3 -1,4 13 7 - - W
24.06.2018 10:00:00 9,4 -0,5 13 7 - - W
24.06.2018 09:00:00 10,6 -6,0 4 2 - - W
24.06.2018 08:00:00 10,9 -13,1 5 3 - - NW
24.06.2018 07:00:00 11,5 -7,8 2 1 - - E
24.06.2018 06:00:00 10,8 -7,0 4 2 - - SW
24.06.2018 05:00:00 9,5 1,5 5 3 - - WNW
24.06.2018 04:00:00 8,0 3,5 8 4 - - W
24.06.2018 03:00:00 9,4 1,3 4 2 - - W
24.06.2018 02:00:00 7,1 4,8 11 6 - - WSW
24.06.2018 01:00:00 7,7 4,5 11 6 - - W
24.06.2018 00:00:00 7,8 4,0 11 6 - - W
23.06.2018 23:00:00 7,8 7,1 26 14 - - WNW
23.06.2018 22:00:00 6,9 6,2 26 14 - - W
23.06.2018 21:00:00 7,6 6,2 35 19 46 25 W
23.06.2018 20:00:00 8,6 6,0 29 16 - - WNW
23.06.2018 19:00:00 8,5 5,9 35 19 - - W
23.06.2018 18:00:00 7,9 5,7 28 15 - - W
23.06.2018 17:00:00 8,0 5,6 26 14 - - W
23.06.2018 16:00:00 8,0 5,2 34 18 - - W
23.06.2018 15:00:00 7,7 4,0 24 13 - - W
23.06.2018 14:00:00 7,3 3,5 31 17 46 25 W
23.06.2018 13:00:00 6,6 3,7 34 18 46 25 W
23.06.2018 12:00:00 5,9 3,0 37 20 52 28 W
23.06.2018 11:00:00 5,2 3,5 31 17 - - W
23.06.2018 10:00:00 4,7 1,9 29 16 - - W
23.06.2018 09:00:00 4,7 3,0 34 18 - - W
23.06.2018 08:00:00 5,1 0,7 35 19 - - W
23.06.2018 07:00:00 4,9 0,3 26 14 - - W
23.06.2018 06:00:00 4,3 2,8 35 19 46 25 W
23.06.2018 05:00:00 5,2 1,3 26 14 - - W
23.06.2018 04:00:00 4,2 4,2 22 12 - - W
23.06.2018 03:00:00 4,7 4,7 31 17 - - W
23.06.2018 02:00:00 4,6 4,6 37 20 - - WNW
23.06.2018 01:00:00 5,2 4,6 28 15 - - WNW
23.06.2018 00:00:00 5,8 4,9 31 17 - - W
22.06.2018 23:00:00 7,2 6,8 37 20 - - W
22.06.2018 22:00:00 8,0 6,7 34 18 - - W
22.06.2018 21:00:00 9,1 5,1 26 14 - - W
22.06.2018 20:00:00 9,8 4,1 29 16 - - W
22.06.2018 19:00:00 10,3 2,6 34 18 52 28 W
22.06.2018 18:00:00 10,8 2,0 28 15 - - W
22.06.2018 17:00:00 10,9 0,8 28 15 48 26 WNW
22.06.2018 16:00:00 10,5 0,5 31 17 50 27 WNW
22.06.2018 15:00:00 10,1 -2,2 34 18 48 26 W
22.06.2018 14:00:00 10,1 -0,8 31 17 48 26 W
22.06.2018 13:00:00 8,9 -0,6 28 15 - - W
22.06.2018 12:00:00 7,8 -0,8 16 9 - - W
22.06.2018 11:00:00 6,4 0,2 16 9 - - W
22.06.2018 10:00:00 8,3 -6,9 5 3 - - NNE
22.06.2018 09:00:00 6,8 -4,3 13 7 - - NNE
22.06.2018 08:00:00 5,7 -2,1 22 12 - - NE
22.06.2018 07:00:00 4,9 -2,2 18 10 - - NNE
22.06.2018 06:00:00 4,2 -0,2 18 10 - - NNE
22.06.2018 05:00:00 4,1 1,0 22 12 - - N
22.06.2018 04:00:00 4,2 2,2 34 18 - - N
22.06.2018 03:00:00 4,3 3,0 34 18 - - N
22.06.2018 02:00:00 5,2 2,9 34 18 - - NNW
22.06.2018 01:00:00 5,6 3,7 31 17 - - N
22.06.2018 00:00:00 5,0 4,2 34 18 - - NNW
21.06.2018 23:00:00 6,0 4,4 39 21 46 25 NNW
21.06.2018 22:00:00 6,2 4,7 31 17 - - NW
21.06.2018 21:00:00 7,5 4,1 29 16 48 26 WNW
21.06.2018 20:00:00 7,8 5,2 35 19 48 26 WNW
21.06.2018 19:00:00 8,3 4,3 31 17 52 28 WNW
21.06.2018 18:00:00 9,3 1,7 37 20 52 28 WNW
21.06.2018 17:00:00 8,6 1,9 37 20 55 30 WNW
21.06.2018 16:00:00 8,4 1,8 39 21 55 30 NW
21.06.2018 15:00:00 7,9 1,3 39 21 59 32 WNW
21.06.2018 14:00:00 7,2 1,1 39 21 57 31 WNW
21.06.2018 13:00:00 6,5 1,6 35 19 50 27 NW
21.06.2018 12:00:00 5,9 1,9 35 19 50 27 WNW
21.06.2018 11:00:00 5,2 0,4 31 17 50 27 NW
21.06.2018 10:00:00 4,3 1,1 39 21 50 27 NNW
21.06.2018 09:00:00 3,0 -0,8 46 25 61 33 NNW
21.06.2018 08:00:00 1,9 0,0 42 23 57 31 NNW
21.06.2018 07:00:00 1,8 1,3 48 26 57 31 NNW
21.06.2018 06:00:00 1,8 1,8 46 25 61 33 NW
21.06.2018 05:00:00 2,1 2,1 41 22 70 38 NW
21.06.2018 04:00:00 2,6 2,6 46 25 74 40 WNW
21.06.2018 03:00:00 2,4 2,4 57 31 72 39 WNW
21.06.2018 02:00:00 3,1 3,1 65 35 78 42 W
21.06.2018 01:00:00 3,5 3,5 55 30 70 38 W
21.06.2018 00:00:00 3,5 3,5 55 30 70 38 W
20.06.2018 23:00:00 3,6 3,4 48 26 72 39 W
20.06.2018 22:00:00 4,1 3,5 48 26 63 34 W
20.06.2018 21:00:00 4,7 4,2 44 24 68 37 W
20.06.2018 20:00:00 5,6 4,8 54 29 63 34 W
20.06.2018 19:00:00 6,4 6,3 50 27 61 33 WNW
20.06.2018 18:00:00 7,6 7,6 42 23 52 28 WNW
20.06.2018 17:00:00 7,6 7,6 39 21 52 28 WNW
20.06.2018 16:00:00 7,5 7,5 41 22 52 28 WNW
20.06.2018 15:00:00 7,2 7,2 37 20 50 27 W
20.06.2018 14:00:00 7,1 7,1 41 22 57 31 WNW
20.06.2018 13:00:00 7,7 7,7 50 27 74 40 WNW
20.06.2018 12:00:00 8,7 8,7 67 36 80 43 W
20.06.2018 11:00:00 9,8 9,8 72 39 85 46 W
20.06.2018 10:00:00 10,4 10,4 68 37 85 46 W
20.06.2018 09:00:00 10,2 10,2 80 43 - - W
20.06.2018 08:00:00 10,8 10,8 72 39 87 47 WSW
20.06.2018 07:00:00 10,9 10,9 72 39 83 45 WSW
20.06.2018 06:00:00 11,2 11,2 72 39 107 58 WSW
20.06.2018 05:00:00 11,3 11,3 94 51 119 64 WSW
20.06.2018 04:00:00 11,5 11,5 102 55 117 63 WSW
20.06.2018 03:00:00 11,5 11,5 91 49 104 56 WSW
20.06.2018 02:00:00 11,5 11,5 89 48 106 57 WSW
20.06.2018 01:00:00 11,4 11,4 81 44 102 55 WSW
20.06.2018 00:00:00 11,3 11,3 72 39 98 53 SW
19.06.2018 23:00:00 11,3 11,3 78 42 100 54 SW
19.06.2018 22:00:00 11,2 11,2 78 42 94 51 SW
19.06.2018 21:00:00 10,4 10,4 72 39 91 49 SW
19.06.2018 20:00:00 9,4 9,4 59 32 70 38 SW
19.06.2018 19:00:00 8,6 8,6 46 25 54 29 SW
19.06.2018 18:00:00 7,6 7,6 31 17 - - SW
19.06.2018 17:00:00 6,9 6,8 31 17 - - SW
19.06.2018 16:00:00 7,6 5,5 39 21 46 25 SW
19.06.2018 15:00:00 7,8 4,1 37 20 46 25 WSW
19.06.2018 14:00:00 7,0 2,5 37 20 - - SW
19.06.2018 13:00:00 6,6 3,4 39 21 50 27 SW
19.06.2018 12:00:00 6,5 2,4 41 22 48 26 WSW
19.06.2018 11:00:00 5,9 1,3 39 21 50 27 WSW
19.06.2018 10:00:00 5,4 1,3 42 23 57 31 WSW
19.06.2018 09:00:00 4,8 1,3 52 28 61 33 WSW
19.06.2018 08:00:00 3,6 0,8 42 23 46 25 WSW
19.06.2018 07:00:00 3,0 0,7 35 19 52 28 WSW
19.06.2018 06:00:00 3,1 3,1 46 25 65 35 WSW
19.06.2018 05:00:00 3,6 3,6 57 31 67 36 W
19.06.2018 04:00:00 4,4 4,4 52 28 76 41 W
19.06.2018 03:00:00 4,8 4,8 65 35 76 41 W
19.06.2018 02:00:00 4,9 4,9 61 33 81 44 W
19.06.2018 01:00:00 6,0 6,0 65 35 85 46 W
19.06.2018 00:00:00 6,7 6,7 80 43 - - W
18.06.2018 23:00:00 8,0 8,0 70 38 87 47 W
18.06.2018 22:00:00 9,1 9,1 63 34 83 45 W
18.06.2018 21:00:00 9,1 9,1 63 34 74 40 WSW
18.06.2018 20:00:00 9,0 9,0 57 31 68 37 WSW
18.06.2018 19:00:00 8,5 8,5 61 33 70 38 WSW
18.06.2018 18:00:00 7,9 7,9 50 27 68 37 SW
18.06.2018 17:00:00 7,6 7,0 55 30 72 39 WSW
18.06.2018 16:00:00 7,9 6,6 57 31 68 37 SW
18.06.2018 15:00:00 8,0 6,1 57 31 70 38 WSW
18.06.2018 14:00:00 7,4 5,3 52 28 70 38 WSW

tt = temperature
td = dewpoint
ff = wind speed
fx = gusts
dd = wind direction

Next stations